Time,TemperatureF,DewpointF,PressureIn,WindDirection,WindDirectionDegrees,WindSpeedMPH,WindSpeedGustMPH,Humidity,HourlyPrecipIn,Conditions,Clouds,dailyrainin,SoftwareType,DateUTC
2013-03-02 00:04:00,40.7,33.0,30.20,South,191,0.0,1.0,75,0.00,,,0.00,weatherlink.com 1.10,2013-03-02 06:04:00,
2013-03-02 00:19:00,40.9,34.0,30.20,SW,214,0.0,1.0,76,0.00,,,0.00,weatherlink.com 1.10,2013-03-02 06:19:00,
2013-03-02 00:34:00,40.5,34.0,30.20,SW,214,0.0,1.0,77,0.00,,,0.00,weatherlink.com 1.10,2013-03-02 06:34:00,
2013-03-02 00:49:00,40.3,34.0,30.20,SW,214,0.0,0.0,77,0.00,,,0.00,weatherlink.com 1.10,2013-03-02 06:49:00,
2013-03-02 01:04:00,41.5,33.0,30.20,WNW,301,1.0,2.0,72,0.00,,,0.00,weatherlink.com 1.10,2013-03-02 07:04:00,
2013-03-02 01:19:00,41.4,34.0,30.21,West,273,0.0,1.0,74,0.00,,,0.00,weatherlink.com 1.10,2013-03-02 07:19:00,
2013-03-02 01:34:00,40.7,34.0,30.21,West,259,0.0,1.0,77,0.00,,,0.00,weatherlink.com 1.10,2013-03-02 07:34:00,
2013-03-02 01:49:00,40.9,34.0,30.21,WNW,294,1.0,2.0,75,0.00,,,0.00,weatherlink.com 1.10,2013-03-02 07:49:00,
2013-03-02 02:04:00,41.3,33.0,30.21,NW,307,2.0,4.0,72,0.00,,,0.00,weatherlink.com 1.10,2013-03-02 08:04:00,
2013-03-02 02:19:00,41.2,33.0,30.21,WNW,294,1.0,3.0,72,0.00,,,0.00,weatherlink.com 1.10,2013-03-02 08:19:00,
2013-03-02 02:34:00,41.2,33.0,30.21,WNW,301,3.0,5.0,73,0.00,,,0.00,weatherlink.com 1.10,2013-03-02 08:34:00,
2013-03-02 02:49:00,41.1,33.0,30.21,WNW,283,2.0,5.0,73,0.00,,,0.00,weatherlink.com 1.10,2013-03-02 08:49:00,
2013-03-02 03:04:00,40.8,33.0,30.21,WNW,298,3.0,4.0,74,0.00,,,0.00,weatherlink.com 1.10,2013-03-02 09:04:00,
2013-03-02 03:19:00,40.9,33.0,30.21,WNW,302,1.0,6.0,74,0.00,,,0.00,weatherlink.com 1.10,2013-03-02 09:19:00,
2013-03-02 03:34:00,40.9,33.0,30.21,WNW,294,2.0,6.0,73,0.00,,,0.00,weatherlink.com 1.10,2013-03-02 09:34:00,
2013-03-02 03:49:00,41.2,33.0,30.22,North,351,9.0,9.0,72,0.00,,,0.00,weatherlink.com 1.10,2013-03-02 09:49:00,
2013-03-02 04:03:00,41.2,33.0,30.22,NW,310,4.0,10.0,71,0.00,,,0.00,weatherlink.com 1.10,2013-03-02 10:03:00,
2013-03-02 04:18:00,41.0,32.0,30.23,NW,308,4.0,8.0,71,0.00,,,0.00,weatherlink.com 1.10,2013-03-02 10:18:00,
2013-03-02 04:33:00,40.6,32.0,30.23,WNW,302,7.0,8.0,71,0.00,,,0.00,weatherlink.com 1.10,2013-03-02 10:33:00,
2013-03-02 04:49:00,40.1,32.0,30.23,WNW,300,0.0,9.0,72,0.00,,,0.00,weatherlink.com 1.10,2013-03-02 10:49:00,
2013-03-02 05:04:00,39.6,32.0,30.24,NNE,13,5.0,9.0,74,0.00,,,0.00,weatherlink.com 1.10,2013-03-02 11:04:00,
2013-03-02 05:19:00,39.1,32.0,30.24,NW,316,3.0,8.0,75,0.00,,,0.00,weatherlink.com 1.10,2013-03-02 11:19:00,
2013-03-02 05:34:00,38.6,32.0,30.24,NNE,22,3.0,7.0,76,0.00,,,0.00,weatherlink.com 1.10,2013-03-02 11:34:00,
2013-03-02 05:49:00,38.1,32.0,30.25,NNE,27,8.0,9.0,77,0.00,,,0.00,weatherlink.com 1.10,2013-03-02 11:49:00,
2013-03-02 06:04:00,37.5,32.0,30.25,North,353,2.0,11.0,79,0.00,,,0.00,weatherlink.com 1.10,2013-03-02 12:04:00,
2013-03-02 06:19:00,37.0,31.0,30.25,NW,323,5.0,11.0,80,0.00,,,0.00,weatherlink.com 1.10,2013-03-02 12:19:00,
2013-03-02 06:34:00,36.9,31.0,30.27,NNW,332,5.0,14.0,79,0.00,,,0.00,weatherlink.com 1.10,2013-03-02 12:34:00,
2013-03-02 06:49:00,36.8,31.0,30.27,NNW,341,5.0,12.0,79,0.00,,,0.00,weatherlink.com 1.10,2013-03-02 12:49:00,
2013-03-02 07:04:00,36.7,31.0,30.28,NNW,345,9.0,12.0,79,0.00,,,0.00,weatherlink.com 1.10,2013-03-02 13:04:00,
2013-03-02 07:19:00,37.4,30.0,30.29,NNE,23,9.0,14.0,75,0.00,,,0.00,weatherlink.com 1.10,2013-03-02 13:19:00,
2013-03-02 07:34:00,37.8,30.0,30.30,NNW,348,7.0,13.0,72,0.00,,,0.00,weatherlink.com 1.10,2013-03-02 13:34:00,
2013-03-02 07:49:00,38.3,29.0,30.30,North,360,12.0,13.0,70,0.00,,,0.00,weatherlink.com 1.10,2013-03-02 13:49:00,
2013-03-02 08:04:00,38.9,29.0,30.30,NNW,328,12.0,15.0,68,0.00,,,0.00,weatherlink.com 1.10,2013-03-02 14:04:00,
2013-03-02 08:19:00,39.6,30.0,30.30,North,6,8.0,13.0,67,0.00,,,0.00,weatherlink.com 1.10,2013-03-02 14:19:00,
2013-03-02 08:34:00,40.1,30.0,30.30,NNW,327,8.0,15.0,66,0.00,,,0.00,weatherlink.com 1.10,2013-03-02 14:34:00,
2013-03-02 08:49:00,40.9,29.0,30.31,NE,39,13.0,18.0,62,0.00,,,0.00,weatherlink.com 1.10,2013-03-02 14:49:00,
2013-03-02 09:04:00,40.9,27.0,30.31,WNW,301,8.0,23.0,57,0.00,,,0.00,weatherlink.com 1.10,2013-03-02 15:04:00,
2013-03-02 09:19:00,41.3,26.0,30.31,West,276,2.0,24.0,54,0.00,,,0.00,weatherlink.com 1.10,2013-03-02 15:19:00,
2013-03-02 09:34:00,41.5,26.0,30.31,NNW,343,14.0,27.0,54,0.00,,,0.00,weatherlink.com 1.10,2013-03-02 15:34:00,
2013-03-02 09:49:00,42.1,25.0,30.31,North,352,7.0,18.0,51,0.00,,,0.00,weatherlink.com 1.10,2013-03-02 15:49:00,
2013-03-02 10:04:00,42.4,25.0,30.31,NNE,19,16.0,21.0,50,0.00,,,0.00,weatherlink.com 1.10,2013-03-02 16:04:00,
2013-03-02 10:19:00,43.0,25.0,30.31,NW,315,6.0,23.0,49,0.00,,,0.00,weatherlink.com 1.10,2013-03-02 16:19:00,
2013-03-02 10:34:00,43.1,25.0,30.31,NNE,28,10.0,22.0,49,0.00,,,0.00,weatherlink.com 1.10,2013-03-02 16:34:00,
2013-03-02 10:49:00,43.2,25.0,30.30,NNW,347,9.0,23.0,48,0.00,,,0.00,weatherlink.com 1.10,2013-03-02 16:49:00,
2013-03-02 11:04:00,43.6,25.0,30.30,NW,308,16.0,22.0,48,0.00,,,0.00,weatherlink.com 1.10,2013-03-02 17:04:00,
2013-03-02 11:19:00,44.4,25.0,30.30,North,358,16.0,22.0,47,0.00,,,0.00,weatherlink.com 1.10,2013-03-02 17:19:00,
2013-03-02 11:34:00,44.3,25.0,30.29,North,352,5.0,22.0,46,0.00,,,0.00,weatherlink.com 1.10,2013-03-02 17:34:00,
2013-03-02 11:48:00,44.5,24.0,30.29,NNE,23,9.0,21.0,45,0.00,,,0.00,weatherlink.com 1.10,2013-03-02 17:48:00,
2013-03-02 12:03:00,45.0,26.0,30.28,NE,34,11.0,15.0,47,0.00,,,0.00,weatherlink.com 1.10,2013-03-02 18:03:00,
2013-03-02 12:18:00,45.2,25.0,30.28,North,351,5.0,18.0,44,0.00,,,0.00,weatherlink.com 1.10,2013-03-02 18:18:00,
2013-03-02 12:33:00,46.2,25.0,30.27,NW,307,6.0,17.0,43,0.00,,,0.00,weatherlink.com 1.10,2013-03-02 18:33:00,
2013-03-02 12:48:00,46.2,25.0,30.26,North,354,10.0,22.0,44,0.00,,,0.00,weatherlink.com 1.10,2013-03-02 18:48:00,
2013-03-02 13:03:00,46.1,26.0,30.25,North,1,5.0,18.0,45,0.00,,,0.00,weatherlink.com 1.10,2013-03-02 19:03:00,
2013-03-02 13:18:00,47.3,25.0,30.25,WNW,288,3.0,22.0,42,0.00,,,0.00,weatherlink.com 1.10,2013-03-02 19:18:00,
2013-03-02 13:33:00,46.6,25.0,30.24,East,84,3.0,18.0,43,0.00,,,0.00,weatherlink.com 1.10,2013-03-02 19:33:00,
2013-03-02 13:48:00,47.8,27.0,30.23,NW,304,10.0,19.0,44,0.00,,,0.00,weatherlink.com 1.10,2013-03-02 19:48:00,
2013-03-02 14:03:00,48.1,25.0,30.23,NNE,19,5.0,15.0,40,0.00,,,0.00,weatherlink.com 1.10,2013-03-02 20:03:00,
2013-03-02 14:18:00,48.7,25.0,30.23,NNE,25,9.0,19.0,40,0.00,,,0.00,weatherlink.com 1.10,2013-03-02 20:18:00,
2013-03-02 14:33:00,49.1,26.0,30.23,North,349,8.0,18.0,40,0.00,,,0.00,weatherlink.com 1.10,2013-03-02 20:33:00,
2013-03-02 14:48:00,49.1,26.0,30.22,NW,326,10.0,19.0,41,0.00,,,0.00,weatherlink.com 1.10,2013-03-02 20:48:00,
2013-03-02 15:03:00,49.8,26.0,30.22,North,351,15.0,17.0,40,0.00,,,0.00,weatherlink.com 1.10,2013-03-02 21:03:00,
2013-03-02 15:18:00,49.8,26.0,30.23,NNW,333,13.0,21.0,39,0.00,,,0.00,weatherlink.com 1.10,2013-03-02 21:18:00,
2013-03-02 15:33:00,50.0,27.0,30.23,NNE,27,13.0,17.0,40,0.00,,,0.00,weatherlink.com 1.10,2013-03-02 21:33:00,
2013-03-02 15:48:00,50.4,26.0,30.22,NW,321,4.0,15.0,39,0.00,,,0.00,weatherlink.com 1.10,2013-03-02 21:48:00,
2013-03-02 16:03:00,50.4,27.0,30.23,WNW,287,8.0,18.0,40,0.00,,,0.00,weatherlink.com 1.10,2013-03-02 22:03:00,
2013-03-02 16:18:00,50.5,27.0,30.22,NW,321,6.0,16.0,40,0.00,,,0.00,weatherlink.com 1.10,2013-03-02 22:18:00,
2013-03-02 16:33:00,50.4,27.0,30.22,WNW,295,10.0,16.0,40,0.00,,,0.00,weatherlink.com 1.10,2013-03-02 22:33:00,
2013-03-02 16:48:00,50.4,28.0,30.23,NW,308,7.0,21.0,41,0.00,,,0.00,weatherlink.com 1.10,2013-03-02 22:48:00,
2013-03-02 17:02:00,49.9,27.0,30.23,NW,319,7.0,24.0,40,0.00,,,0.00,weatherlink.com 1.10,2013-03-02 23:02:00,
2013-03-02 17:17:00,50.1,27.0,30.23,NNW,335,11.0,17.0,40,0.00,,,0.00,weatherlink.com 1.10,2013-03-02 23:17:00,
2013-03-02 17:32:00,49.7,27.0,30.24,NNW,330,2.0,14.0,41,0.00,,,0.00,weatherlink.com 1.10,2013-03-02 23:32:00,
2013-03-02 17:47:00,49.5,27.0,30.24,NW,307,7.0,13.0,41,0.00,,,0.00,weatherlink.com 1.10,2013-03-02 23:47:00,
2013-03-02 18:02:00,48.8,27.0,30.25,WNW,295,4.0,10.0,43,0.00,,,0.00,weatherlink.com 1.10,2013-03-03 00:02:00,
2013-03-02 18:17:00,48.0,27.0,30.25,NW,315,4.0,11.0,44,0.00,,,0.00,weatherlink.com 1.10,2013-03-03 00:17:00,
2013-03-02 18:32:00,47.4,27.0,30.26,West,278,4.0,11.0,45,0.00,,,0.00,weatherlink.com 1.10,2013-03-03 00:32:00,
2013-03-02 18:47:00,46.9,28.0,30.27,NNW,332,4.0,8.0,47,0.00,,,0.00,weatherlink.com 1.10,2013-03-03 00:47:00,
2013-03-02 19:02:00,46.3,28.0,30.27,NW,323,1.0,7.0,49,0.00,,,0.00,weatherlink.com 1.10,2013-03-03 01:02:00,
2013-03-02 19:17:00,45.7,29.0,30.28,WNW,298,1.0,5.0,51,0.00,,,0.00,weatherlink.com 1.10,2013-03-03 01:17:00,
2013-03-02 19:31:00,44.9,29.0,30.28,NNE,23,1.0,4.0,53,0.00,,,0.00,weatherlink.com 1.10,2013-03-03 01:31:00,
2013-03-02 19:46:00,43.7,29.0,30.28,NNE,32,1.0,2.0,56,0.00,,,0.00,weatherlink.com 1.10,2013-03-03 01:46:00,
2013-03-02 20:01:00,42.9,29.0,30.28,NNW,342,3.0,3.0,58,0.00,,,0.00,weatherlink.com 1.10,2013-03-03 02:01:00,
2013-03-02 20:16:00,42.6,29.0,30.28,North,358,0.0,2.0,59,0.00,,,0.00,weatherlink.com 1.10,2013-03-03 02:16:00,
2013-03-02 20:31:00,42.0,29.0,30.28,NNE,22,0.0,1.0,60,0.00,,,0.00,weatherlink.com 1.10,2013-03-03 02:31:00,
2013-03-02 20:46:00,41.4,29.0,30.28,NNE,22,0.0,0.0,62,0.00,,,0.00,weatherlink.com 1.10,2013-03-03 02:46:00,
2013-03-02 21:01:00,40.7,29.0,30.28,NNE,22,0.0,1.0,64,0.00,,,0.00,weatherlink.com 1.10,2013-03-03 03:01:00,
2013-03-02 21:16:00,40.4,30.0,30.29,NNE,22,0.0,1.0,66,0.00,,,0.00,weatherlink.com 1.10,2013-03-03 03:16:00,
2013-03-02 21:30:00,40.0,30.0,30.29,North,358,0.0,1.0,68,0.00,,,0.00,weatherlink.com 1.10,2013-03-03 03:30:00,
2013-03-02 21:45:00,39.4,30.0,30.29,North,356,0.0,1.0,69,0.00,,,0.00,weatherlink.com 1.10,2013-03-03 03:45:00,
2013-03-02 22:00:00,38.3,30.0,30.29,North,357,0.0,0.0,71,0.00,,,0.00,weatherlink.com 1.10,2013-03-03 04:00:00,
2013-03-02 22:16:00,37.6,30.0,30.29,North,357,0.0,0.0,74,0.00,,,0.00,weatherlink.com 1.10,2013-03-03 04:16:00,
2013-03-02 22:30:00,37.1,30.0,30.29,North,356,0.0,0.0,74,0.00,,,0.00,weatherlink.com 1.10,2013-03-03 04:30:00,
2013-03-02 22:45:00,36.0,30.0,30.29,North,356,0.0,0.0,78,0.00,,,0.00,weatherlink.com 1.10,2013-03-03 04:45:00,
2013-03-02 23:01:00,35.2,29.0,30.29,North,356,0.0,0.0,79,0.00,,,0.00,weatherlink.com 1.10,2013-03-03 05:01:00,
2013-03-02 23:16:00,35.3,30.0,30.29,North,356,0.0,1.0,81,0.00,,,0.00,weatherlink.com 1.10,2013-03-03 05:16:00,
2013-03-02 23:30:00,35.3,30.0,30.28,North,356,0.0,0.0,81,0.00,,,0.00,weatherlink.com 1.10,2013-03-03 05:30:00,
2013-03-02 23:45:00,34.9,30.0,30.28,North,357,0.0,0.0,82,0.00,,,0.00,weatherlink.com 1.10,2013-03-03 05:45:00,